Time;durP1;ratioP1;P1;durP2;ratioP2;P2;SDS_P1;SDS_P2;PMS_P1;PMS_P2;Temp;Humidity;BMP_temperature;BMP_pressure;BME280_temperature;BME280_humidity;BME280_pressure;Samples;Min_cycle;Max_cycle;Signal;HPM_P1;HPM_P2
2023/01/20 00:01:42;;;;;;;86.80;40.67;;;;;;;;;;5055189;28;20198;-71
2023/01/20 00:04:08;;;;;;;77.83;40.53;;;;;;;;;;5036879;28;20834;-73
2023/01/20 00:06:34;;;;;;;75.73;41.03;;;;;;;;;;5055443;28;20417;-73
2023/01/20 00:09:01;;;;;;;77.37;42.03;;;;;;;;;;5037637;28;20511;-72
2023/01/20 00:11:28;;;;;;;78.37;43.77;;;;;;;;;;5056172;28;20981;-72
2023/01/20 00:13:55;;;;;;;80.20;44.73;;;;;;;;;;5056774;28;20474;-72
2023/01/20 00:16:21;;;;;;;77.13;42.40;;;;;;;;;;5037668;28;20935;-70
2023/01/20 00:18:47;;;;;;;80.23;42.90;;;;;;;;;;5055220;28;20948;-72
2023/01/20 00:21:15;;;;;;;85.57;42.43;;;;;;;;;;5055815;28;20441;-71
2023/01/20 00:23:41;;;;;;;76.63;40.47;;;;;;;;;;5037785;28;20182;-70
2023/01/20 00:26:09;;;;;;;79.67;41.40;;;;;;;;;;5055046;28;20417;-71
2023/01/20 00:28:35;;;;;;;80.23;40.77;;;;;;;;;;5037153;28;20174;-71
2023/01/20 00:31:14;;;;;;;74.27;39.97;;;;;;;;;;5054295;28;20429;-71
2023/01/20 00:33:40;;;;;;;74.83;40.67;;;;;;;;;;5054051;28;20416;-72
2023/01/20 00:36:07;;;;;;;81.33;41.50;;;;;;;;;;5054524;28;20405;-70
2023/01/20 00:38:33;;;;;;;79.63;41.10;;;;;;;;;;5054358;28;20225;-70
2023/01/20 00:40:59;;;;;;;83.73;41.97;;;;;;;;;;5053922;28;20425;-71
2023/01/20 00:43:25;;;;;;;82.77;41.07;;;;;;;;;;5054087;28;20650;-71
2023/01/20 00:45:51;;;;;;;74.93;41.90;;;;;;;;;;5036066;28;20212;-68
2023/01/20 00:48:17;;;;;;;77.97;41.17;;;;;;;;;;5036184;28;20189;-71
2023/01/20 00:50:43;;;;;;;77.13;42.33;;;;;;;;;;5053792;28;20200;-71
2023/01/20 00:53:09;;;;;;;80.00;41.80;;;;;;;;;;5053721;28;20404;-70
2023/01/20 00:55:35;;;;;;;73.43;40.67;;;;;;;;;;5036055;28;20186;-71
2023/01/20 00:58:01;;;;;;;83.07;43.53;;;;;;;;;;5053647;28;20206;-71
2023/01/20 01:00:27;;;;;;;78.67;40.23;;;;;;;;;;5036221;28;20208;-69
2023/01/20 01:02:53;;;;;;;75.03;39.70;;;;;;;;;;5053858;28;20300;-72
2023/01/20 01:05:19;;;;;;;75.40;40.87;;;;;;;;;;5054105;28;20693;-71
2023/01/20 01:07:44;;;;;;;78.33;41.17;;;;;;;;;;5057803;28;20640;-70
2023/01/20 01:10:10;;;;;;;73.23;39.93;;;;;;;;;;5058082;28;20591;-71
2023/01/20 01:12:36;;;;;;;73.17;40.20;;;;;;;;;;5057655;28;20633;-70
2023/01/20 01:15:02;;;;;;;73.83;38.93;;;;;;;;;;5057830;28;20174;-72
2023/01/20 01:17:28;;;;;;;75.33;38.40;;;;;;;;;;5057921;28;20179;-70
2023/01/20 01:19:54;;;;;;;71.77;39.03;;;;;;;;;;5058291;28;20178;-71
2023/01/20 01:22:21;;;;;;;67.73;37.67;;;;;;;;;;5057569;28;20294;-70
2023/01/20 01:24:47;;;;;;;73.93;39.37;;;;;;;;;;5039884;28;20332;-70
2023/01/20 01:27:13;;;;;;;81.00;39.93;;;;;;;;;;5057810;28;20511;-71
2023/01/20 01:29:39;;;;;;;78.60;40.17;;;;;;;;;;5058063;28;20175;-71
2023/01/20 01:32:05;;;;;;;82.37;40.50;;;;;;;;;;5039884;28;20199;-72
2023/01/20 01:34:31;;;;;;;74.27;39.30;;;;;;;;;;5058050;28;20420;-72
2023/01/20 01:36:57;;;;;;;71.80;37.90;;;;;;;;;;5057885;28;20445;-70
2023/01/20 01:39:23;;;;;;;79.00;39.97;;;;;;;;;;5057922;28;20178;-71
2023/01/20 01:41:49;;;;;;;81.40;41.30;;;;;;;;;;5057522;28;20209;-71
2023/01/20 01:44:15;;;;;;;80.83;40.93;;;;;;;;;;5059490;28;20448;-71
2023/01/20 01:46:41;;;;;;;74.50;40.30;;;;;;;;;;5058280;28;20171;-71
2023/01/20 01:49:27;;;;;;;82.40;40.77;;;;;;;;;;5058360;28;20171;-71
2023/01/20 01:51:59;;;;;;;91.93;42.80;;;;;;;;;;5057552;28;20429;-73
2023/01/20 01:54:27;;;;;;;88.10;44.47;;;;;;;;;;5039977;28;20428;-70
2023/01/20 01:56:53;;;;;;;95.83;44.63;;;;;;;;;;5057332;28;20421;-71
2023/01/20 01:59:19;;;;;;;85.53;42.33;;;;;;;;;;5057134;28;20478;-70
2023/01/20 02:01:50;;;;;;;99.00;45.27;;;;;;;;;;5057014;28;20873;-71
2023/01/20 02:04:19;;;;;;;83.27;42.80;;;;;;;;;;5039169;28;20452;-70
2023/01/20 02:06:47;;;;;;;97.17;46.70;;;;;;;;;;5039505;28;20436;-67
2023/01/20 02:09:13;;;;;;;87.67;45.93;;;;;;;;;;5057000;28;20416;-73
2023/01/20 02:11:47;;;;;;;91.90;45.27;;;;;;;;;;5040598;28;20453;-69
2023/01/20 02:14:13;;;;;;;96.67;48.47;;;;;;;;;;5058540;28;20461;-68
2023/01/20 02:16:51;;;;;;;101.93;48.13;;;;;;;;;;5038661;28;20498;-71
2023/01/20 02:19:17;;;;;;;103.60;50.30;;;;;;;;;;5056645;28;20182;-71
2023/01/20 02:21:58;;;;;;;118.83;54.97;;;;;;;;;;5056776;28;20436;-70
2023/01/20 02:24:24;;;;;;;105.67;50.73;;;;;;;;;;5056547;28;20197;-71
2023/01/20 02:26:50;;;;;;;103.50;51.20;;;;;;;;;;5056484;28;20417;-72
2023/01/20 02:29:32;;;;;;;115.83;53.27;;;;;;;;;;5056930;28;20206;-71
2023/01/20 02:32:01;;;;;;;106.77;51.63;;;;;;;;;;5056039;28;20290;-73
2023/01/20 02:34:26;;;;;;;109.43;52.27;;;;;;;;;;5056214;28;20421;-70
2023/01/20 02:37:19;;;;;;;105.33;52.30;;;;;;;;;;5038380;28;20423;-71
2023/01/20 02:39:45;;;;;;;98.93;50.30;;;;;;;;;;5052607;28;20205;-70
2023/01/20 02:42:14;;;;;;;105.40;50.73;;;;;;;;;;5038820;28;20433;-72
2023/01/20 02:44:46;;;;;;;102.80;49.73;;;;;;;;;;5056608;28;20221;-71
2023/01/20 02:47:20;;;;;;;95.07;49.77;;;;;;;;;;5056413;28;20437;-71
2023/01/20 02:49:49;;;;;;;102.50;49.17;;;;;;;;;;5056544;28;20413;-71
2023/01/20 02:52:19;;;;;;;99.60;46.13;;;;;;;;;;5080509;22;21038;-68
2023/01/20 02:54:48;;;;;;;85.83;45.03;;;;;;;;;;5076448;28;20886;-70
2023/01/20 02:57:16;;;;;;;88.00;46.47;;;;;;;;;;5076026;28;20458;-69
2023/01/20 02:59:43;;;;;;;88.63;45.30;;;;;;;;;;5075881;28;20443;-70
2023/01/20 03:02:13;;;;;;;84.83;43.80;;;;;;;;;;5075887;28;20796;-68
2023/01/20 03:04:45;;;;;;;84.93;45.47;;;;;;;;;;5075019;28;20497;-69
2023/01/20 03:07:12;;;;;;;85.23;43.07;;;;;;;;;;5075980;28;20438;-70
2023/01/20 03:09:40;;;;;;;82.30;43.90;;;;;;;;;;5075854;28;20408;-71
2023/01/20 03:12:14;;;;;;;82.60;43.33;;;;;;;;;;5076214;28;20460;-72
2023/01/20 03:14:40;;;;;;;87.07;43.90;;;;;;;;;;5074582;28;20412;-71
2023/01/20 03:17:06;;;;;;;78.93;41.10;;;;;;;;;;5075802;28;20427;-71
2023/01/20 03:19:32;;;;;;;86.53;43.53;;;;;;;;;;5075500;28;20248;-72
2023/01/20 03:21:58;;;;;;;84.53;44.40;;;;;;;;;;5074491;28;20615;-70
2023/01/20 03:24:25;;;;;;;82.50;43.80;;;;;;;;;;5077023;28;20209;-70
2023/01/20 03:26:51;;;;;;;73.87;41.60;;;;;;;;;;5084363;28;20173;-70
2023/01/20 03:29:17;;;;;;;79.47;40.83;;;;;;;;;;5092621;28;20411;-72
2023/01/20 03:31:46;;;;;;;76.73;40.87;;;;;;;;;;5084792;28;20181;-70
2023/01/20 03:34:15;;;;;;;74.63;40.23;;;;;;;;;;5078450;28;20431;-70
2023/01/20 03:36:43;;;;;;;78.03;42.33;;;;;;;;;;5077485;28;20419;-70
2023/01/20 03:39:09;;;;;;;77.27;43.07;;;;;;;;;;5075294;28;20914;-69
2023/01/20 03:41:38;;;;;;;78.47;40.30;;;;;;;;;;5076898;28;20754;-70
2023/01/20 03:44:23;;;;;;;86.93;43.57;;;;;;;;;;5076476;28;20459;-70
2023/01/20 03:46:53;;;;;;;75.47;39.83;;;;;;;;;;5076464;28;20404;-70
2023/01/20 03:49:26;;;;;;;71.17;39.83;;;;;;;;;;5076806;28;20404;-70
2023/01/20 03:52:19;;;;;;;76.80;41.43;;;;;;;;;;5076272;28;20420;-70
2023/01/20 03:54:48;;;;;;;73.57;40.40;;;;;;;;;;5072735;28;20461;-70
2023/01/20 03:57:19;;;;;;;81.13;42.40;;;;;;;;;;5073740;28;20427;-70
2023/01/20 03:59:46;;;;;;;71.97;39.13;;;;;;;;;;5074694;28;20898;-71
2023/01/20 04:02:12;;;;;;;72.27;39.67;;;;;;;;;;5076305;28;20966;-72
2023/01/20 04:04:40;;;;;;;73.33;40.60;;;;;;;;;;5075754;28;20550;-71
2023/01/20 04:07:07;;;;;;;67.33;38.53;;;;;;;;;;5075866;28;20327;-70
2023/01/20 04:09:36;;;;;;;72.50;39.40;;;;;;;;;;5074095;28;20412;-71
2023/01/20 04:12:02;;;;;;;72.80;37.37;;;;;;;;;;5075173;28;20817;-70
2023/01/20 04:14:28;;;;;;;71.73;34.67;;;;;;;;;;5075837;28;20428;-70
2023/01/20 04:16:58;;;;;;;62.77;35.40;;;;;;;;;;5074644;28;20178;-70
2023/01/20 04:19:24;;;;;;;67.67;34.73;;;;;;;;;;5074891;28;20178;-70
2023/01/20 04:22:03;;;;;;;62.33;34.40;;;;;;;;;;5075540;28;20439;-70
2023/01/20 04:24:33;;;;;;;62.50;35.03;;;;;;;;;;5074592;28;20535;-69
2023/01/20 04:26:59;;;;;;;61.20;34.97;;;;;;;;;;5074918;28;20399;-70
2023/01/20 04:29:25;;;;;;;61.90;33.60;;;;;;;;;;5075009;28;20897;-70
2023/01/20 04:31:57;;;;;;;56.77;33.80;;;;;;;;;;5073317;28;20551;-70
2023/01/20 04:34:23;;;;;;;60.40;33.47;;;;;;;;;;5073130;28;20580;-70
2023/01/20 04:36:49;;;;;;;54.23;32.13;;;;;;;;;;5074500;28;20487;-70
2023/01/20 04:39:15;;;;;;;55.03;30.83;;;;;;;;;;5072777;28;20177;-70
2023/01/20 04:41:41;;;;;;;57.90;30.37;;;;;;;;;;5074317;28;20209;-70
2023/01/20 04:44:07;;;;;;;59.50;31.23;;;;;;;;;;5073077;28;20209;-71
2023/01/20 04:46:33;;;;;;;58.47;30.67;;;;;;;;;;5073029;28;20227;-70
2023/01/20 04:48:59;;;;;;;58.07;33.17;;;;;;;;;;5073088;28;20174;-70
2023/01/20 04:51:25;;;;;;;54.13;31.13;;;;;;;;;;5074419;28;20174;-71
2023/01/20 04:53:50;;;;;;;51.77;30.90;;;;;;;;;;5072481;28;20212;-70
2023/01/20 04:56:16;;;;;;;54.80;31.67;;;;;;;;;;5074194;28;20169;-70
2023/01/20 04:58:42;;;;;;;52.30;30.57;;;;;;;;;;5074142;28;20177;-71
2023/01/20 05:01:09;;;;;;;51.93;30.27;;;;;;;;;;5072947;28;20178;-70
2023/01/20 05:03:35;;;;;;;54.43;33.07;;;;;;;;;;5072810;28;20447;-70
2023/01/20 05:06:01;;;;;;;50.07;30.43;;;;;;;;;;5072678;28;20559;-70
2023/01/20 05:08:27;;;;;;;48.87;29.70;;;;;;;;;;5073735;28;20413;-70
2023/01/20 05:10:53;;;;;;;49.70;30.47;;;;;;;;;;5073784;28;20487;-70
2023/01/20 05:13:19;;;;;;;49.57;29.93;;;;;;;;;;5073683;28;20634;-70
2023/01/20 05:15:44;;;;;;;52.30;31.53;;;;;;;;;;5074123;28;20697;-70
2023/01/20 05:18:11;;;;;;;49.13;30.77;;;;;;;;;;5073875;28;20182;-70
2023/01/20 05:20:36;;;;;;;56.97;32.07;;;;;;;;;;5072813;28;20217;-71
2023/01/20 05:23:02;;;;;;;52.87;32.37;;;;;;;;;;5072312;28;20476;-70
2023/01/20 05:25:29;;;;;;;54.00;31.73;;;;;;;;;;5072816;28;20209;-70
2023/01/20 05:27:55;;;;;;;51.77;30.80;;;;;;;;;;5072448;28;20492;-70
2023/01/20 05:30:20;;;;;;;52.37;31.80;;;;;;;;;;5073789;28;20511;-70
2023/01/20 05:32:50;;;;;;;51.27;31.57;;;;;;;;;;5073662;28;20665;-70
2023/01/20 05:35:16;;;;;;;48.30;31.10;;;;;;;;;;5072318;28;20416;-69
2023/01/20 05:37:42;;;;;;;57.60;34.23;;;;;;;;;;5073437;28;20428;-69
2023/01/20 05:40:09;;;;;;;50.87;33.53;;;;;;;;;;5073309;28;20417;-70
2023/01/20 05:42:34;;;;;;;54.37;32.40;;;;;;;;;;5073066;28;20193;-70
2023/01/20 05:45:00;;;;;;;54.43;33.10;;;;;;;;;;5073493;28;20550;-70
2023/01/20 05:47:26;;;;;;;56.10;32.73;;;;;;;;;;5072497;28;20192;-70
2023/01/20 05:49:53;;;;;;;48.07;30.30;;;;;;;;;;5073399;28;20253;-70
2023/01/20 05:52:19;;;;;;;49.40;30.63;;;;;;;;;;5074396;28;20691;-70
2023/01/20 05:54:45;;;;;;;47.43;31.67;;;;;;;;;;5077600;28;20420;-69
2023/01/20 05:57:16;;;;;;;50.60;30.27;;;;;;;;;;5083602;28;20415;-70
2023/01/20 05:59:42;;;;;;;46.67;29.23;;;;;;;;;;5091932;28;20185;-70
2023/01/20 06:02:10;;;;;;;47.60;30.17;;;;;;;;;;5092041;28;20431;-71
2023/01/20 06:04:36;;;;;;;47.90;30.60;;;;;;;;;;5087558;28;20206;-69
2023/01/20 06:07:02;;;;;;;46.10;29.40;;;;;;;;;;5089101;28;20461;-69
2023/01/20 06:09:27;;;;;;;46.40;29.50;;;;;;;;;;5089471;28;20200;-71
2023/01/20 06:11:53;;;;;;;48.73;29.63;;;;;;;;;;5089197;28;20198;-69
2023/01/20 06:14:19;;;;;;;46.97;30.63;;;;;;;;;;5080013;28;20181;-69
2023/01/20 06:16:45;;;;;;;46.30;28.33;;;;;;;;;;5080156;28;20589;-69
2023/01/20 06:19:11;;;;;;;45.73;30.00;;;;;;;;;;5078189;28;20758;-70
2023/01/20 06:21:37;;;;;;;47.13;28.97;;;;;;;;;;5077330;28;20265;-69
2023/01/20 06:24:03;;;;;;;46.37;31.40;;;;;;;;;;5076953;28;20444;-69
2023/01/20 06:26:29;;;;;;;43.97;30.20;;;;;;;;;;5075114;28;20272;-69
2023/01/20 06:29:00;;;;;;;43.30;28.27;;;;;;;;;;5076525;28;20986;-69
2023/01/20 06:31:27;;;;;;;42.93;28.60;;;;;;;;;;5076409;28;20170;-69
2023/01/20 06:33:53;;;;;;;41.73;28.03;;;;;;;;;;5075377;28;20888;-69
2023/01/20 06:36:19;;;;;;;44.27;29.60;;;;;;;;;;5076740;28;20404;-69
2023/01/20 06:38:49;;;;;;;46.57;28.57;;;;;;;;;;5076356;28;20178;-69
2023/01/20 06:41:15;;;;;;;44.97;28.67;;;;;;;;;;5074714;28;20227;-69
2023/01/20 06:43:41;;;;;;;43.80;29.37;;;;;;;;;;5075077;28;20442;-69
2023/01/20 06:46:10;;;;;;;43.03;29.83;;;;;;;;;;5075438;28;20459;-70
2023/01/20 06:48:36;;;;;;;42.57;29.37;;;;;;;;;;5076533;28;20173;-70
2023/01/20 06:51:06;;;;;;;47.03;29.60;;;;;;;;;;5076450;28;20461;-69
2023/01/20 06:53:32;;;;;;;48.23;29.67;;;;;;;;;;5076280;28;20210;-69
2023/01/20 06:55:59;;;;;;;46.40;29.87;;;;;;;;;;5075148;28;20439;-69
2023/01/20 06:58:25;;;;;;;43.90;28.00;;;;;;;;;;5075045;28;20549;-69
2023/01/20 07:00:52;;;;;;;40.17;27.90;;;;;;;;;;5075356;28;20428;-69
2023/01/20 07:03:18;;;;;;;42.00;27.83;;;;;;;;;;5089664;28;20447;-71
2023/01/20 07:05:44;;;;;;;42.50;27.97;;;;;;;;;;5093640;28;20460;-70
2023/01/20 07:08:10;;;;;;;43.50;26.53;;;;;;;;;;5092784;28;20499;-71
2023/01/20 07:10:36;;;;;;;40.07;25.27;;;;;;;;;;5084340;28;20179;-70
2023/01/20 07:13:02;;;;;;;41.17;25.50;;;;;;;;;;5092960;28;20427;-69
2023/01/20 07:15:28;;;;;;;40.00;26.90;;;;;;;;;;5083130;28;20408;-69
2023/01/20 07:17:54;;;;;;;39.87;25.70;;;;;;;;;;5077170;28;20221;-69
2023/01/20 07:20:20;;;;;;;38.23;25.83;;;;;;;;;;5077300;28;20189;-69
2023/01/20 07:22:46;;;;;;;37.57;25.90;;;;;;;;;;5076812;28;20193;-70
2023/01/20 07:25:12;;;;;;;36.43;24.37;;;;;;;;;;5076004;28;20790;-70
2023/01/20 07:27:38;;;;;;;42.07;25.53;;;;;;;;;;5077746;28;20181;-69
2023/01/20 07:30:04;;;;;;;36.43;25.60;;;;;;;;;;5077395;28;20181;-69
2023/01/20 07:32:30;;;;;;;40.87;28.00;;;;;;;;;;5075590;28;20672;-69
2023/01/20 07:34:56;;;;;;;39.33;28.07;;;;;;;;;;5076070;28;20440;-69
2023/01/20 07:37:22;;;;;;;40.87;28.93;;;;;;;;;;5075736;28;20170;-69
2023/01/20 07:39:48;;;;;;;39.10;27.23;;;;;;;;;;5075866;28;20258;-69
2023/01/20 07:42:29;;;;;;;42.03;28.33;;;;;;;;;;5053562;28;20232;-69
2023/01/20 07:44:55;;;;;;;45.57;28.13;;;;;;;;;;5076174;28;20830;-69
2023/01/20 07:47:21;;;;;;;43.10;27.50;;;;;;;;;;5074659;28;20627;-69
2023/01/20 07:49:46;;;;;;;42.47;27.57;;;;;;;;;;5075670;28;20196;-70
2023/01/20 07:52:12;;;;;;;42.77;27.83;;;;;;;;;;5074969;28;20255;-71
2023/01/20 07:54:38;;;;;;;37.50;25.67;;;;;;;;;;5075406;28;20174;-70
2023/01/20 07:57:04;;;;;;;43.90;28.27;;;;;;;;;;5073658;28;20189;-69
2023/01/20 07:59:30;;;;;;;39.70;26.97;;;;;;;;;;5075315;28;20192;-71
2023/01/20 08:01:56;;;;;;;37.57;25.23;;;;;;;;;;5073621;28;20735;-72
2023/01/20 08:04:22;;;;;;;38.67;25.87;;;;;;;;;;5073673;28;20209;-70
2023/01/20 08:06:48;;;;;;;39.10;26.93;;;;;;;;;;5073362;28;20279;-70
2023/01/20 08:09:14;;;;;;;42.80;27.80;;;;;;;;;;5074912;28;20174;-70
2023/01/20 08:11:40;;;;;;;40.87;26.73;;;;;;;;;;5073216;28;20509;-69
2023/01/20 08:14:07;;;;;;;39.67;26.90;;;;;;;;;;5074504;28;20415;-71
2023/01/20 08:16:32;;;;;;;38.30;26.07;;;;;;;;;;5074571;28;20416;-70
2023/01/20 08:18:58;;;;;;;37.60;25.83;;;;;;;;;;5074425;28;20422;-70
2023/01/20 08:21:29;;;;;;;46.00;27.70;;;;;;;;;;5072974;28;20178;-70
2023/01/20 08:23:55;;;;;;;39.57;26.43;;;;;;;;;;5072937;28;20189;-70
2023/01/20 08:26:23;;;;;;;40.07;27.53;;;;;;;;;;5072691;28;20470;-70
2023/01/20 08:28:50;;;;;;;44.07;28.37;;;;;;;;;;5074153;28;20830;-70
2023/01/20 08:31:17;;;;;;;41.33;27.77;;;;;;;;;;5073636;28;20408;-72
2023/01/20 08:33:43;;;;;;;40.07;25.70;;;;;;;;;;5072561;28;20469;-70
2023/01/20 08:36:13;;;;;;;40.43;27.20;;;;;;;;;;5073655;28;20438;-70
2023/01/20 08:38:39;;;;;;;38.93;27.10;;;;;;;;;;5074302;28;20894;-70
2023/01/20 08:41:06;;;;;;;38.77;26.67;;;;;;;;;;5073684;28;20920;-70
2023/01/20 08:43:32;;;;;;;39.40;26.43;;;;;;;;;;5073766;28;20435;-70
2023/01/20 08:46:03;;;;;;;38.80;27.23;;;;;;;;;;5072307;28;20462;-70
2023/01/20 08:48:29;;;;;;;38.77;27.67;;;;;;;;;;5073955;28;20636;-70
2023/01/20 08:50:55;;;;;;;40.93;27.13;;;;;;;;;;5073762;28;20405;-71
2023/01/20 08:53:21;;;;;;;40.17;26.40;;;;;;;;;;5073163;28;20213;-70
2023/01/20 08:55:57;;;;;;;37.77;27.67;;;;;;;;;;5073112;28;20967;-70
2023/01/20 08:58:23;;;;;;;38.53;25.37;;;;;;;;;;5073089;28;20173;-70
2023/01/20 09:00:49;;;;;;;36.73;26.77;;;;;;;;;;5073100;28;20413;-70
2023/01/20 09:03:15;;;;;;;38.23;26.03;;;;;;;;;;5073027;28;20440;-71
2023/01/20 09:05:41;;;;;;;36.13;25.33;;;;;;;;;;5071832;28;20209;-70
2023/01/20 09:08:07;;;;;;;35.93;25.47;;;;;;;;;;5072814;28;20199;-70
2023/01/20 09:10:33;;;;;;;38.53;23.60;;;;;;;;;;5071965;28;20178;-70
2023/01/20 09:12:59;;;;;;;33.63;23.77;;;;;;;;;;5072874;28;20201;-70
2023/01/20 09:15:25;;;;;;;41.77;25.03;;;;;;;;;;5071417;28;20463;-70
2023/01/20 09:17:51;;;;;;;38.40;23.03;;;;;;;;;;5071422;28;20563;-70
2023/01/20 09:20:17;;;;;;;38.20;23.27;;;;;;;;;;5072768;28;20214;-70
2023/01/20 09:22:43;;;;;;;37.63;23.37;;;;;;;;;;5072450;28;20198;-70
2023/01/20 09:25:09;;;;;;;35.93;23.43;;;;;;;;;;5071439;28;20756;-70
2023/01/20 09:27:35;;;;;;;36.07;23.20;;;;;;;;;;5073273;28;20200;-70
2023/01/20 09:30:02;;;;;;;35.87;23.57;;;;;;;;;;5076821;28;20400;-70
2023/01/20 09:32:28;;;;;;;35.70;24.13;;;;;;;;;;5076390;28;20510;-70
2023/01/20 09:34:55;;;;;;;39.33;26.43;;;;;;;;;;5075188;22;1050361;-73
2023/01/20 09:45:44;;;;;;;36.23;25.10;;;;;;;;;;5058648;28;20539;-71
2023/01/20 09:53:55;;;;;;;38.30;26.83;;;;;;;;;;5058825;28;20477;-72
2023/01/20 09:56:25;;;;;;;37.97;25.40;;;;;;;;;;5058499;28;20166;-72
2023/01/20 09:58:56;;;;;;;36.20;25.57;;;;;;;;;;5058490;28;20454;-69
2023/01/20 10:01:29;;;;;;;36.77;26.37;;;;;;;;;;5040580;28;20413;-72
2023/01/20 10:04:07;;;;;;;37.67;25.17;;;;;;;;;;5040536;28;20207;-71
2023/01/20 10:06:39;;;;;;;38.97;25.90;;;;;;;;;;5041611;28;20506;-71
2023/01/20 10:09:09;;;;;;;35.63;25.13;;;;;;;;;;5064220;28;20193;-72
2023/01/20 10:11:38;;;;;;;35.83;23.47;;;;;;;;;;5064749;28;20217;-70
2023/01/20 10:14:06;;;;;;;32.27;24.53;;;;;;;;;;5063213;28;20469;-73
2023/01/20 10:16:32;;;;;;;32.57;23.90;;;;;;;;;;5040947;28;20413;-71
2023/01/20 10:19:04;;;;;;;33.17;21.83;;;;;;;;;;5057963;28;20655;-71
2023/01/20 10:21:33;;;;;;;31.87;21.17;;;;;;;;;;5040286;28;20182;-71
2023/01/20 10:24:18;;;;;;;29.27;21.50;;;;;;;;;;5057761;28;20198;-69
2023/01/20 10:26:56;;;;;;;30.13;21.77;;;;;;;;;;5057747;28;20424;-71
2023/01/20 10:29:42;;;;;;;25.80;18.37;;;;;;;;;;5039992;28;20421;-71
2023/01/20 10:32:29;;;;;;;27.60;20.33;;;;;;;;;;5040514;28;20405;-71
2023/01/20 10:34:56;;;;;;;24.80;19.23;;;;;;;;;;5039234;28;20966;-72
2023/01/20 10:37:23;;;;;;;29.00;20.23;;;;;;;;;;5039366;28;20186;-71
2023/01/20 10:39:48;;;;;;;27.27;19.50;;;;;;;;;;5038970;28;20507;-71
2023/01/20 10:42:16;;;;;;;28.60;20.73;;;;;;;;;;5039506;28;20183;-71
2023/01/20 10:44:42;;;;;;;29.53;20.97;;;;;;;;;;5039318;28;20210;-71
2023/01/20 10:47:17;;;;;;;26.30;19.23;;;;;;;;;;5057388;28;20182;-72
2023/01/20 10:49:57;;;;;;;28.27;18.93;;;;;;;;;;5057109;28;20178;-71
2023/01/20 10:52:44;;;;;;;27.30;18.97;;;;;;;;;;5039452;28;20397;-71
2023/01/20 10:55:30;;;;;;;25.30;17.70;;;;;;;;;;5057501;28;20459;-71
2023/01/20 10:58:00;;;;;;;23.90;19.13;;;;;;;;;;5057271;28;20628;-69
2023/01/20 11:00:28;;;;;;;25.70;18.43;;;;;;;;;;5057167;28;20175;-68
2023/01/20 11:02:55;;;;;;;25.10;18.70;;;;;;;;;;5056960;28;20235;-70
2023/01/20 11:05:23;;;;;;;27.50;18.77;;;;;;;;;;5057123;28;20680;-69
2023/01/20 11:07:51;;;;;;;23.17;18.43;;;;;;;;;;5056895;28;20175;-70
2023/01/20 11:10:19;;;;;;;25.57;18.93;;;;;;;;;;5056870;28;20718;-68
2023/01/20 11:12:46;;;;;;;26.93;18.63;;;;;;;;;;5038793;28;20791;-69
2023/01/20 11:15:18;;;;;;;24.33;18.93;;;;;;;;;;5038639;28;20436;-68
2023/01/20 11:17:44;;;;;;;28.57;20.07;;;;;;;;;;5038571;28;20421;-69
2023/01/20 11:20:14;;;;;;;23.23;18.27;;;;;;;;;;5056010;28;20178;-68
2023/01/20 11:22:44;;;;;;;27.23;19.67;;;;;;;;;;5038397;28;20192;-67
2023/01/20 11:25:20;;;;;;;23.43;17.90;;;;;;;;;;5056110;28;20580;-68
2023/01/20 11:27:46;;;;;;;26.77;18.40;;;;;;;;;;5056104;28;20163;-68
2023/01/20 11:30:22;;;;;;;26.80;17.20;;;;;;;;;;5056831;28;20178;-66
2023/01/20 11:33:07;;;;;;;26.10;17.80;;;;;;;;;;5055949;28;20171;-68
2023/01/20 11:35:32;;;;;;;28.17;20.40;;;;;;;;;;5055718;28;20234;-68
2023/01/20 11:38:00;;;;;;;31.90;19.60;;;;;;;;;;5055945;28;20551;-68
2023/01/20 11:40:28;;;;;;;26.90;18.67;;;;;;;;;;5055705;28;20671;-68
2023/01/20 11:42:54;;;;;;;22.80;17.47;;;;;;;;;;5055522;28;20182;-69
2023/01/20 11:45:25;;;;;;;24.30;16.23;;;;;;;;;;5037964;28;20213;-66
2023/01/20 11:48:02;;;;;;;20.97;16.60;;;;;;;;;;5055651;28;20254;-68
2023/01/20 11:50:39;;;;;;;21.23;16.00;;;;;;;;;;5054841;28;20816;-68
2023/01/20 11:53:12;;;;;;;21.33;15.93;;;;;;;;;;5055890;28;20163;-68
2023/01/20 11:55:46;;;;;;;20.33;15.27;;;;;;;;;;5037529;28;20210;-68
2023/01/20 11:58:16;;;;;;;18.20;15.13;;;;;;;;;;5037923;28;20182;-69
2023/01/20 12:00:43;;;;;;;25.70;15.57;;;;;;;;;;5055658;28;20185;-69
2023/01/20 12:03:12;;;;;;;23.90;14.17;;;;;;;;;;5055265;28;20179;-69
2023/01/20 12:05:50;;;;;;;21.43;15.00;;;;;;;;;;5037543;28;20622;-69
2023/01/20 12:08:34;;;;;;;18.90;13.60;;;;;;;;;;5055208;28;20628;-68
2023/01/20 12:11:03;;;;;;;21.40;14.47;;;;;;;;;;5055169;28;20178;-69
2023/01/20 12:14:18;;;;;;;21.73;14.37;;;;;;;;;;5055107;28;20174;-69
2023/01/20 12:16:22;;;;;;;22.07;13.93;;;;;;;;;;5055198;28;20178;-69
2023/01/20 12:18:54;;;;;;;17.73;14.33;;;;;;;;;;5037566;28;20227;-68
2023/01/20 12:21:23;;;;;;;16.47;11.63;;;;;;;;;;5054980;28;20174;-68
2023/01/20 12:23:52;;;;;;;15.53;12.07;;;;;;;;;;5036941;28;20258;-72
2023/01/20 12:26:20;;;;;;;15.50;11.57;;;;;;;;;;5037350;28;20213;-70
2023/01/20 12:28:55;;;;;;;16.33;12.10;;;;;;;;;;5055037;28;20204;-71
2023/01/20 12:31:22;;;;;;;19.33;12.77;;;;;;;;;;5055978;28;20181;-66
2023/01/20 12:33:54;;;;;;;20.50;13.40;;;;;;;;;;5055251;28;20312;-69
2023/01/20 12:36:32;;;;;;;13.10;11.27;;;;;;;;;;5036584;28;20189;-68
2023/01/20 12:39:04;;;;;;;14.00;10.67;;;;;;;;;;5055123;28;20688;-69
2023/01/20 12:41:30;;;;;;;13.03;10.57;;;;;;;;;;5054645;28;20257;-68
2023/01/20 12:44:02;;;;;;;12.97;10.40;;;;;;;;;;5036684;28;20226;-67
2023/01/20 12:46:51;;;;;;;16.40;10.30;;;;;;;;;;5036794;28;20179;-68
2023/01/20 12:49:17;;;;;;;12.83;10.60;;;;;;;;;;5043971;28;20201;-67
2023/01/20 12:51:53;;;;;;;15.07;10.47;;;;;;;;;;5036521;28;20179;-68
2023/01/20 12:54:22;;;;;;;13.27;10.20;;;;;;;;;;5054481;28;20191;-68
2023/01/20 12:56:54;;;;;;;13.93;10.87;;;;;;;;;;5036578;28;20179;-68
2023/01/20 12:59:29;;;;;;;20.77;15.47;;;;;;;;;;5054705;28;20624;-68
2023/01/20 13:02:04;;;;;;;28.10;16.27;;;;;;;;;;5053568;28;20178;-69
2023/01/20 13:04:33;;;;;;;37.57;24.80;;;;;;;;;;5036196;28;20216;-69
2023/01/20 13:06:59;;;;;;;16.33;12.33;;;;;;;;;;5054069;28;20181;-68
2023/01/20 13:09:43;;;;;;;14.20;9.70;;;;;;;;;;5036496;28;20218;-68
2023/01/20 13:12:09;;;;;;;12.70;9.27;;;;;;;;;;5036236;28;20730;-68
2023/01/20 13:14:42;;;;;;;10.17;8.37;;;;;;;;;;5053955;28;20222;-67
2023/01/20 13:17:23;;;;;;;10.70;8.13;;;;;;;;;;5054049;28;20202;-66
2023/01/20 13:19:51;;;;;;;10.87;8.80;;;;;;;;;;5054733;28;20178;-69
2023/01/20 13:22:21;;;;;;;10.37;8.50;;;;;;;;;;5054605;28;20213;-68
2023/01/20 13:24:54;;;;;;;14.47;9.33;;;;;;;;;;5053868;28;20638;-68
2023/01/20 13:27:32;;;;;;;14.03;9.40;;;;;;;;;;5053937;28;20210;-68
2023/01/20 13:29:59;;;;;;;13.33;9.50;;;;;;;;;;5054036;28;20213;-69
2023/01/20 13:32:28;;;;;;;13.77;9.93;;;;;;;;;;5053867;28;20223;-69
2023/01/20 13:34:55;;;;;;;16.23;10.27;;;;;;;;;;5054063;28;20575;-67
2023/01/20 13:37:23;;;;;;;14.73;9.53;;;;;;;;;;5054205;28;20313;-67
2023/01/20 13:39:49;;;;;;;12.27;9.90;;;;;;;;;;5036241;28;20186;-69
2023/01/20 13:42:29;;;;;;;11.87;9.33;;;;;;;;;;5053932;28;20190;-68
2023/01/20 13:45:13;;;;;;;14.33;10.20;;;;;;;;;;5036101;28;20577;-68
2023/01/20 13:47:51;;;;;;;15.13;10.93;;;;;;;;;;5054027;28;20580;-67
2023/01/20 13:50:22;;;;;;;20.27;11.43;;;;;;;;;;5054338;28;20175;-67
2023/01/20 13:52:51;;;;;;;24.60;12.40;;;;;;;;;;5054192;28;20171;-68
2023/01/20 13:55:35;;;;;;;22.57;11.83;;;;;;;;;;5036428;28;20669;-66
2023/01/20 13:58:01;;;;;;;16.10;10.70;;;;;;;;;;5036476;28;20316;-68
2023/01/20 14:00:27;;;;;;;16.90;11.40;;;;;;;;;;5054326;28;20231;-69
2023/01/20 14:02:53;;;;;;;22.87;12.03;;;;;;;;;;5054367;28;20654;-67
2023/01/20 14:05:20;;;;;;;16.57;10.77;;;;;;;;;;5053926;28;20209;-67
2023/01/20 14:07:46;;;;;;;13.47;9.93;;;;;;;;;;5036208;28;20186;-68
2023/01/20 14:10:12;;;;;;;14.73;9.80;;;;;;;;;;5053705;28;20178;-69
2023/01/20 14:12:41;;;;;;;13.73;9.50;;;;;;;;;;5035817;28;20186;-67
2023/01/20 14:15:21;;;;;;;14.37;8.93;;;;;;;;;;5057212;28;20198;-69
2023/01/20 14:17:54;;;;;;;9.87;6.60;;;;;;;;;;5057906;28;20167;-65
2023/01/20 14:20:22;;;;;;;9.10;7.33;;;;;;;;;;5058477;28;20174;-68
2023/01/20 14:22:49;;;;;;;7.33;6.47;;;;;;;;;;5041094;28;20202;-68
2023/01/20 14:25:25;;;;;;;8.30;7.23;;;;;;;;;;5058162;28;20248;-68
2023/01/20 14:27:52;;;;;;;11.17;7.10;;;;;;;;;;5038961;28;20216;-68
2023/01/20 14:30:25;;;;;;;9.60;6.80;;;;;;;;;;5057526;28;20178;-68
2023/01/20 14:32:52;;;;;;;10.40;6.97;;;;;;;;;;5057915;28;20183;-68
2023/01/20 14:35:27;;;;;;;10.23;8.17;;;;;;;;;;5057194;28;20247;-68
2023/01/20 14:37:54;;;;;;;10.63;8.30;;;;;;;;;;5057406;28;20181;-67
2023/01/20 14:40:23;;;;;;;9.40;7.67;;;;;;;;;;5056855;28;20175;-67
2023/01/20 14:43:02;;;;;;;13.70;8.87;;;;;;;;;;5039141;28;20664;-68